sensor_id;sensor_type;location;lat;lon;timestamp;temperature;humidity
480;DHT22;226;48.606;9.096;2023-02-18T00:00:58;11.30;42.10
480;DHT22;226;48.606;9.096;2023-02-18T00:03:27;11.40;54.70
480;DHT22;226;48.606;9.096;2023-02-18T00:05:55;11.40;41.10
480;DHT22;226;48.606;9.096;2023-02-18T00:08:24;11.20;41.20
480;DHT22;226;48.606;9.096;2023-02-18T00:10:52;11.20;41.70
480;DHT22;226;48.606;9.096;2023-02-18T00:13:21;11.40;54.10
480;DHT22;226;48.606;9.096;2023-02-18T00:15:49;11.30;40.50
480;DHT22;226;48.606;9.096;2023-02-18T00:18:17;12.20;41.40
480;DHT22;226;48.606;9.096;2023-02-18T00:20:45;11.30;40.60
480;DHT22;226;48.606;9.096;2023-02-18T00:23:13;11.30;39.20
480;DHT22;226;48.606;9.096;2023-02-18T00:25:41;11.30;39.00
480;DHT22;226;48.606;9.096;2023-02-18T00:28:09;11.30;40.10
480;DHT22;226;48.606;9.096;2023-02-18T00:30:40;11.20;40.10
480;DHT22;226;48.606;9.096;2023-02-18T00:33:08;11.40;40.10
480;DHT22;226;48.606;9.096;2023-02-18T00:35:36;11.20;39.30
480;DHT22;226;48.606;9.096;2023-02-18T00:38:05;11.30;40.60
480;DHT22;226;48.606;9.096;2023-02-18T00:40:36;11.40;41.20
480;DHT22;226;48.606;9.096;2023-02-18T00:43:04;11.30;41.10
480;DHT22;226;48.606;9.096;2023-02-18T00:45:32;11.20;40.40
480;DHT22;226;48.606;9.096;2023-02-18T00:48:02;11.50;42.10
480;DHT22;226;48.606;9.096;2023-02-18T00:50:30;11.10;40.70
480;DHT22;226;48.606;9.096;2023-02-18T00:52:58;11.20;41.50
480;DHT22;226;48.606;9.096;2023-02-18T00:55:26;11.10;40.70
480;DHT22;226;48.606;9.096;2023-02-18T00:57:54;11.20;42.20
480;DHT22;226;48.606;9.096;2023-02-18T01:00:23;11.40;42.50
480;DHT22;226;48.606;9.096;2023-02-18T01:02:52;11.20;41.70
480;DHT22;226;48.606;9.096;2023-02-18T01:05:21;11.20;40.60
480;DHT22;226;48.606;9.096;2023-02-18T01:07:49;11.80;42.60
480;DHT22;226;48.606;9.096;2023-02-18T01:10:18;11.30;41.70
480;DHT22;226;48.606;9.096;2023-02-18T01:12:46;11.20;41.70
480;DHT22;226;48.606;9.096;2023-02-18T01:15:15;11.20;40.70
480;DHT22;226;48.606;9.096;2023-02-18T01:17:43;11.20;41.20
480;DHT22;226;48.606;9.096;2023-02-18T01:20:12;11.10;41.80
480;DHT22;226;48.606;9.096;2023-02-18T01:22:42;11.10;41.80
480;DHT22;226;48.606;9.096;2023-02-18T01:25:11;11.10;41.20
480;DHT22;226;48.606;9.096;2023-02-18T01:30:10;11.20;40.60
480;DHT22;226;48.606;9.096;2023-02-18T01:32:39;11.10;41.20
480;DHT22;226;48.606;9.096;2023-02-18T01:35:09;11.10;40.80
480;DHT22;226;48.606;9.096;2023-02-18T01:37:38;11.10;41.80
480;DHT22;226;48.606;9.096;2023-02-18T01:40:11;11.40;42.30
480;DHT22;226;48.606;9.096;2023-02-18T01:42:40;11.10;41.70
480;DHT22;226;48.606;9.096;2023-02-18T01:45:35;11.10;40.80
480;DHT22;226;48.606;9.096;2023-02-18T01:48:09;11.10;41.80
480;DHT22;226;48.606;9.096;2023-02-18T01:50:41;11.00;41.10
480;DHT22;226;48.606;9.096;2023-02-18T01:53:11;11.00;41.70
480;DHT22;226;48.606;9.096;2023-02-18T01:55:43;11.00;41.10
480;DHT22;226;48.606;9.096;2023-02-18T01:58:12;11.00;42.10
480;DHT22;226;48.606;9.096;2023-02-18T02:00:40;10.90;41.40
480;DHT22;226;48.606;9.096;2023-02-18T02:03:08;10.80;41.50
480;DHT22;226;48.606;9.096;2023-02-18T02:05:36;10.80;41.50
480;DHT22;226;48.606;9.096;2023-02-18T02:08:05;10.90;41.90
480;DHT22;226;48.606;9.096;2023-02-18T02:10:52;10.60;42.30
480;DHT22;226;48.606;9.096;2023-02-18T02:13:32;10.00;61.50
480;DHT22;226;48.606;9.096;2023-02-18T02:16:09;10.60;43.50
480;DHT22;226;48.606;9.096;2023-02-18T02:18:49;10.50;43.70
480;DHT22;226;48.606;9.096;2023-02-18T02:24:56;10.40;43.50
480;DHT22;226;48.606;9.096;2023-02-18T02:27:34;10.40;43.60
480;DHT22;226;48.606;9.096;2023-02-18T02:36:22;10.30;45.20
480;DHT22;226;48.606;9.096;2023-02-18T02:38:57;10.60;46.20
480;DHT22;226;48.606;9.096;2023-02-18T02:41:40;10.20;46.40
480;DHT22;226;48.606;9.096;2023-02-18T02:44:18;10.10;46.20
480;DHT22;226;48.606;9.096;2023-02-18T02:46:49;10.40;47.00
480;DHT22;226;48.606;9.096;2023-02-18T02:49:27;10.10;47.10
480;DHT22;226;48.606;9.096;2023-02-18T02:52:04;11.10;48.80
480;DHT22;226;48.606;9.096;2023-02-18T02:54:34;10.10;47.50
480;DHT22;226;48.606;9.096;2023-02-18T02:57:06;10.10;48.50
480;DHT22;226;48.606;9.096;2023-02-18T02:59:36;10.10;48.40
480;DHT22;226;48.606;9.096;2023-02-18T03:02:17;10.20;47.70
480;DHT22;226;48.606;9.096;2023-02-18T03:08:11;10.20;47.80
480;DHT22;226;48.606;9.096;2023-02-18T03:10:48;10.20;48.00
480;DHT22;226;48.606;9.096;2023-02-18T03:13:28;10.10;67.10
480;DHT22;226;48.606;9.096;2023-02-18T03:16:10;10.20;49.00
480;DHT22;226;48.606;9.096;2023-02-18T03:18:43;10.20;49.00
480;DHT22;226;48.606;9.096;2023-02-18T03:21:15;10.20;48.10
480;DHT22;226;48.606;9.096;2023-02-18T03:23:52;10.30;47.50
480;DHT22;226;48.606;9.096;2023-02-18T03:26:23;10.30;47.90
480;DHT22;226;48.606;9.096;2023-02-18T03:28:54;10.40;47.80
480;DHT22;226;48.606;9.096;2023-02-18T03:31:27;10.50;47.20
480;DHT22;226;48.606;9.096;2023-02-18T03:34:00;10.50;44.90
480;DHT22;226;48.606;9.096;2023-02-18T03:36:29;10.40;45.50
480;DHT22;226;48.606;9.096;2023-02-18T03:39:03;10.70;45.30
480;DHT22;226;48.606;9.096;2023-02-18T03:41:32;10.50;45.50
480;DHT22;226;48.606;9.096;2023-02-18T03:44:03;10.50;43.50
480;DHT22;226;48.606;9.096;2023-02-18T03:46:32;10.50;43.60
480;DHT22;226;48.606;9.096;2023-02-18T03:49:01;10.90;44.70
480;DHT22;226;48.606;9.096;2023-02-18T03:51:29;10.40;44.90
480;DHT22;226;48.606;9.096;2023-02-18T03:53:57;10.20;44.30
480;DHT22;226;48.606;9.096;2023-02-18T03:56:27;10.30;45.50
480;DHT22;226;48.606;9.096;2023-02-18T03:58:55;10.20;45.60
480;DHT22;226;48.606;9.096;2023-02-18T04:01:23;10.20;45.50
480;DHT22;226;48.606;9.096;2023-02-18T04:03:51;10.10;44.90
480;DHT22;226;48.606;9.096;2023-02-18T04:06:21;10.10;46.00
480;DHT22;226;48.606;9.096;2023-02-18T04:08:49;10.10;45.70
480;DHT22;226;48.606;9.096;2023-02-18T04:11:18;10.00;46.20
480;DHT22;226;48.606;9.096;2023-02-18T04:13:47;9.90;47.10
480;DHT22;226;48.606;9.096;2023-02-18T04:16:15;9.90;47.70
480;DHT22;226;48.606;9.096;2023-02-18T04:18:43;9.90;63.20
480;DHT22;226;48.606;9.096;2023-02-18T04:21:11;9.90;48.10
480;DHT22;226;48.606;9.096;2023-02-18T04:23:39;9.70;47.60
480;DHT22;226;48.606;9.096;2023-02-18T04:26:07;9.70;47.80
480;DHT22;226;48.606;9.096;2023-02-18T04:28:36;9.90;49.40
480;DHT22;226;48.606;9.096;2023-02-18T04:31:06;9.70;49.50
480;DHT22;226;48.606;9.096;2023-02-18T04:33:34;9.60;68.30
480;DHT22;226;48.606;9.096;2023-02-18T04:36:02;9.60;48.40
480;DHT22;226;48.606;9.096;2023-02-18T04:38:30;9.60;49.20
480;DHT22;226;48.606;9.096;2023-02-18T04:40:58;9.60;49.00
480;DHT22;226;48.606;9.096;2023-02-18T04:43:26;9.10;70.00
480;DHT22;226;48.606;9.096;2023-02-18T04:45:54;9.40;50.40
480;DHT22;226;48.606;9.096;2023-02-18T04:48:24;9.50;50.50
480;DHT22;226;48.606;9.096;2023-02-18T04:50:52;9.30;50.40
480;DHT22;226;48.606;9.096;2023-02-18T04:53:20;9.40;70.30
480;DHT22;226;48.606;9.096;2023-02-18T04:55:49;9.50;51.00
480;DHT22;226;48.606;9.096;2023-02-18T04:58:18;9.50;50.60
480;DHT22;226;48.606;9.096;2023-02-18T05:00:46;9.60;51.40
480;DHT22;226;48.606;9.096;2023-02-18T05:03:14;10.00;52.00
480;DHT22;226;48.606;9.096;2023-02-18T05:08:12;9.50;51.40
480;DHT22;226;48.606;9.096;2023-02-18T05:10:42;9.60;55.80
480;DHT22;226;48.606;9.096;2023-02-18T05:13:10;9.90;55.20
480;DHT22;226;48.606;9.096;2023-02-18T05:15:38;9.60;52.10
480;DHT22;226;48.606;9.096;2023-02-18T05:18:06;9.90;60.50
480;DHT22;226;48.606;9.096;2023-02-18T05:20:34;9.50;53.10
480;DHT22;226;48.606;9.096;2023-02-18T05:23:04;10.90;58.20
480;DHT22;226;48.606;9.096;2023-02-18T05:28:00;9.80;51.30
480;DHT22;226;48.606;9.096;2023-02-18T05:30:28;10.70;56.50
480;DHT22;226;48.606;9.096;2023-02-18T05:32:56;10.80;55.60
480;DHT22;226;48.606;9.096;2023-02-18T05:35:25;9.90;50.90
480;DHT22;226;48.606;9.096;2023-02-18T05:37:53;9.90;51.20
480;DHT22;226;48.606;9.096;2023-02-18T05:40:22;10.00;50.40
480;DHT22;226;48.606;9.096;2023-02-18T05:42:50;10.00;50.50
480;DHT22;226;48.606;9.096;2023-02-18T05:45:18;10.00;49.50
480;DHT22;226;48.606;9.096;2023-02-18T05:47:46;10.40;50.60
480;DHT22;226;48.606;9.096;2023-02-18T05:50:14;10.10;50.00
480;DHT22;226;48.606;9.096;2023-02-18T05:52:42;10.10;49.60
480;DHT22;226;48.606;9.096;2023-02-18T05:55:10;10.10;48.90
480;DHT22;226;48.606;9.096;2023-02-18T05:57:40;10.10;49.20
480;DHT22;226;48.606;9.096;2023-02-18T06:00:09;10.20;49.00
480;DHT22;226;48.606;9.096;2023-02-18T06:02:37;10.30;48.90
480;DHT22;226;48.606;9.096;2023-02-18T06:05:07;10.30;47.60
480;DHT22;226;48.606;9.096;2023-02-18T06:07:35;10.30;48.30
480;DHT22;226;48.606;9.096;2023-02-18T06:10:04;10.30;47.50
480;DHT22;226;48.606;9.096;2023-02-18T06:12:33;10.40;47.50
480;DHT22;226;48.606;9.096;2023-02-18T06:15:03;10.30;46.30
480;DHT22;226;48.606;9.096;2023-02-18T06:17:33;10.30;46.30
480;DHT22;226;48.606;9.096;2023-02-18T06:20:01;10.30;46.90
480;DHT22;226;48.606;9.096;2023-02-18T06:22:30;10.30;46.70
480;DHT22;226;48.606;9.096;2023-02-18T06:24:58;10.20;46.20
480;DHT22;226;48.606;9.096;2023-02-18T06:27:26;10.20;46.60
480;DHT22;226;48.606;9.096;2023-02-18T06:29:54;10.20;46.50
480;DHT22;226;48.606;9.096;2023-02-18T06:32:23;9.40;46.90
480;DHT22;226;48.606;9.096;2023-02-18T06:34:51;10.20;45.70
480;DHT22;226;48.606;9.096;2023-02-18T06:37:20;10.20;46.70
480;DHT22;226;48.606;9.096;2023-02-18T06:39:48;9.90;46.70
480;DHT22;226;48.606;9.096;2023-02-18T06:42:16;10.20;46.90
480;DHT22;226;48.606;9.096;2023-02-18T06:44:44;10.30;46.20
480;DHT22;226;48.606;9.096;2023-02-18T06:47:12;10.20;47.00
480;DHT22;226;48.606;9.096;2023-02-18T06:49:41;10.30;46.90
480;DHT22;226;48.606;9.096;2023-02-18T06:54:38;10.50;45.30
480;DHT22;226;48.606;9.096;2023-02-18T06:57:06;10.40;45.90
480;DHT22;226;48.606;9.096;2023-02-18T06:59:34;10.50;45.20
480;DHT22;226;48.606;9.096;2023-02-18T07:02:02;10.50;44.20
480;DHT22;226;48.606;9.096;2023-02-18T07:04:30;10.60;43.70
480;DHT22;226;48.606;9.096;2023-02-18T07:07:00;10.10;43.80
480;DHT22;226;48.606;9.096;2023-02-18T07:09:28;10.60;43.70
480;DHT22;226;48.606;9.096;2023-02-18T07:11:56;10.60;44.90
480;DHT22;226;48.606;9.096;2023-02-18T07:14:24;10.70;42.80
480;DHT22;226;48.606;9.096;2023-02-18T07:16:53;10.70;42.60
480;DHT22;226;48.606;9.096;2023-02-18T07:19:22;10.80;42.50
480;DHT22;226;48.606;9.096;2023-02-18T07:21:50;10.80;42.20
480;DHT22;226;48.606;9.096;2023-02-18T07:24:21;10.90;41.10
480;DHT22;226;48.606;9.096;2023-02-18T07:26:49;10.90;41.10
480;DHT22;226;48.606;9.096;2023-02-18T07:29:17;11.00;40.90
480;DHT22;226;48.606;9.096;2023-02-18T07:31:45;11.00;39.60
480;DHT22;226;48.606;9.096;2023-02-18T07:34:13;11.00;39.50
480;DHT22;226;48.606;9.096;2023-02-18T07:36:41;11.00;39.70
480;DHT22;226;48.606;9.096;2023-02-18T07:39:09;11.10;39.80
480;DHT22;226;48.606;9.096;2023-02-18T07:41:39;11.10;40.00
480;DHT22;226;48.606;9.096;2023-02-18T07:44:07;11.10;39.00
480;DHT22;226;48.606;9.096;2023-02-18T07:46:38;11.20;39.70
480;DHT22;226;48.606;9.096;2023-02-18T07:49:07;11.10;39.70
480;DHT22;226;48.606;9.096;2023-02-18T07:51:35;11.20;39.00
480;DHT22;226;48.606;9.096;2023-02-18T07:54:04;11.40;38.10
480;DHT22;226;48.606;9.096;2023-02-18T07:56:32;11.40;37.40
480;DHT22;226;48.606;9.096;2023-02-18T07:59:01;11.40;36.50
480;DHT22;226;48.606;9.096;2023-02-18T08:01:30;11.40;37.50
480;DHT22;226;48.606;9.096;2023-02-18T08:03:58;11.40;36.30
480;DHT22;226;48.606;9.096;2023-02-18T08:06:29;11.40;37.10
480;DHT22;226;48.606;9.096;2023-02-18T08:08:58;11.30;36.30
480;DHT22;226;48.606;9.096;2023-02-18T08:11:26;11.30;37.00
480;DHT22;226;48.606;9.096;2023-02-18T08:13:54;11.50;36.20
480;DHT22;226;48.606;9.096;2023-02-18T08:16:24;11.50;36.60
480;DHT22;226;48.606;9.096;2023-02-18T08:18:52;11.40;36.50
480;DHT22;226;48.606;9.096;2023-02-18T08:21:22;11.40;37.00
480;DHT22;226;48.606;9.096;2023-02-18T08:23:51;11.40;36.00
480;DHT22;226;48.606;9.096;2023-02-18T08:26:20;11.50;36.60
480;DHT22;226;48.606;9.096;2023-02-18T08:28:48;11.40;36.10
480;DHT22;226;48.606;9.096;2023-02-18T08:31:18;12.70;38.10
480;DHT22;226;48.606;9.096;2023-02-18T08:33:48;11.50;49.90
480;DHT22;226;48.606;9.096;2023-02-18T08:36:16;11.50;35.90
480;DHT22;226;48.606;9.096;2023-02-18T08:38:45;11.50;35.60
480;DHT22;226;48.606;9.096;2023-02-18T08:41:13;11.60;35.70
480;DHT22;226;48.606;9.096;2023-02-18T08:43:41;11.70;34.30
480;DHT22;226;48.606;9.096;2023-02-18T08:46:10;11.60;34.40
480;DHT22;226;48.606;9.096;2023-02-18T08:48:52;11.60;34.10
480;DHT22;226;48.606;9.096;2023-02-18T08:51:21;11.60;34.10
480;DHT22;226;48.606;9.096;2023-02-18T08:53:49;11.60;33.40
480;DHT22;226;48.606;9.096;2023-02-18T08:58:46;11.70;33.10
480;DHT22;226;48.606;9.096;2023-02-18T09:01:14;11.70;34.30
480;DHT22;226;48.606;9.096;2023-02-18T09:03:42;11.80;31.40
480;DHT22;226;48.606;9.096;2023-02-18T09:06:12;11.80;32.40
480;DHT22;226;48.606;9.096;2023-02-18T09:08:40;11.80;32.90
480;DHT22;226;48.606;9.096;2023-02-18T09:11:09;11.80;32.00
480;DHT22;226;48.606;9.096;2023-02-18T09:13:38;11.80;49.50
480;DHT22;226;48.606;9.096;2023-02-18T09:16:08;11.80;32.60
480;DHT22;226;48.606;9.096;2023-02-18T09:18:36;11.80;32.40
480;DHT22;226;48.606;9.096;2023-02-18T09:21:06;11.80;31.50
480;DHT22;226;48.606;9.096;2023-02-18T09:23:36;11.90;49.30
480;DHT22;226;48.606;9.096;2023-02-18T09:26:06;12.00;32.30
480;DHT22;226;48.606;9.096;2023-02-18T09:28:35;12.10;32.20
480;DHT22;226;48.606;9.096;2023-02-18T09:31:05;12.10;30.70
480;DHT22;226;48.606;9.096;2023-02-18T09:33:35;12.30;47.10
480;DHT22;226;48.606;9.096;2023-02-18T09:36:04;12.30;31.10
480;DHT22;226;48.606;9.096;2023-02-18T09:38:32;12.40;30.50
480;DHT22;226;48.606;9.096;2023-02-18T09:41:04;12.40;30.60
480;DHT22;226;48.606;9.096;2023-02-18T09:43:35;12.40;46.60
480;DHT22;226;48.606;9.096;2023-02-18T09:46:19;12.60;30.40
480;DHT22;226;48.606;9.096;2023-02-18T09:48:48;12.70;29.90
480;DHT22;226;48.606;9.096;2023-02-18T09:51:17;11.90;28.70
480;DHT22;226;48.606;9.096;2023-02-18T09:53:45;12.60;29.10
480;DHT22;226;48.606;9.096;2023-02-18T09:56:18;12.60;30.00
480;DHT22;226;48.606;9.096;2023-02-18T09:58:48;12.70;29.10
480;DHT22;226;48.606;9.096;2023-02-18T10:01:23;12.60;29.00
480;DHT22;226;48.606;9.096;2023-02-18T10:03:53;12.60;29.20
480;DHT22;226;48.606;9.096;2023-02-18T10:06:25;12.80;30.20
480;DHT22;226;48.606;9.096;2023-02-18T10:08:54;12.70;28.30
480;DHT22;226;48.606;9.096;2023-02-18T10:11:30;12.80;27.90
480;DHT22;226;48.606;9.096;2023-02-18T10:13:59;12.80;28.10
480;DHT22;226;48.606;9.096;2023-02-18T10:16:29;12.80;28.30
480;DHT22;226;48.606;9.096;2023-02-18T10:19:00;12.90;27.70
480;DHT22;226;48.606;9.096;2023-02-18T10:21:32;12.90;27.40
480;DHT22;226;48.606;9.096;2023-02-18T10:24:05;12.60;27.20
480;DHT22;226;48.606;9.096;2023-02-18T10:26:36;12.60;28.00
480;DHT22;226;48.606;9.096;2023-02-18T10:29:13;13.30;28.20
480;DHT22;226;48.606;9.096;2023-02-18T10:31:44;12.70;28.20
480;DHT22;226;48.606;9.096;2023-02-18T10:34:20;12.60;27.80
480;DHT22;226;48.606;9.096;2023-02-18T10:36:55;12.60;28.10
480;DHT22;226;48.606;9.096;2023-02-18T10:39:36;12.60;28.40
480;DHT22;226;48.606;9.096;2023-02-18T10:42:22;12.60;27.80
480;DHT22;226;48.606;9.096;2023-02-18T10:45:00;12.60;28.10
480;DHT22;226;48.606;9.096;2023-02-18T10:47:37;12.60;28.40
480;DHT22;226;48.606;9.096;2023-02-18T10:50:12;12.70;27.70
480;DHT22;226;48.606;9.096;2023-02-18T10:52:48;12.80;27.80
480;DHT22;226;48.606;9.096;2023-02-18T10:55:19;12.90;27.10
480;DHT22;226;48.606;9.096;2023-02-18T10:58:01;13.00;26.50
480;DHT22;226;48.606;9.096;2023-02-18T11:00:34;12.90;25.90
480;DHT22;226;48.606;9.096;2023-02-18T11:03:15;12.90;26.40
480;DHT22;226;48.606;9.096;2023-02-18T11:05:44;13.00;26.40
480;DHT22;226;48.606;9.096;2023-02-18T11:08:16;13.00;26.50
480;DHT22;226;48.606;9.096;2023-02-18T11:10:46;12.80;25.80
480;DHT22;226;48.606;9.096;2023-02-18T11:13:23;12.90;26.30
480;DHT22;226;48.606;9.096;2023-02-18T11:15:56;12.90;25.50
480;DHT22;226;48.606;9.096;2023-02-18T11:18:31;13.00;25.80
480;DHT22;226;48.606;9.096;2023-02-18T11:21:05;12.90;26.40
480;DHT22;226;48.606;9.096;2023-02-18T11:23:46;13.00;41.90
480;DHT22;226;48.606;9.096;2023-02-18T11:26:16;13.00;25.30
480;DHT22;226;48.606;9.096;2023-02-18T11:28:49;13.00;25.60
480;DHT22;226;48.606;9.096;2023-02-18T11:31:24;13.00;25.80
480;DHT22;226;48.606;9.096;2023-02-18T11:33:55;12.80;25.30
480;DHT22;226;48.606;9.096;2023-02-18T11:36:28;12.90;25.90
480;DHT22;226;48.606;9.096;2023-02-18T11:38:57;12.90;25.70
480;DHT22;226;48.606;9.096;2023-02-18T11:41:32;13.00;26.00
480;DHT22;226;48.606;9.096;2023-02-18T11:44:04;12.90;24.60
480;DHT22;226;48.606;9.096;2023-02-18T11:46:33;12.90;25.30
480;DHT22;226;48.606;9.096;2023-02-18T11:49:19;13.00;25.90
480;DHT22;226;48.606;9.096;2023-02-18T11:51:49;13.00;25.50
480;DHT22;226;48.606;9.096;2023-02-18T11:54:23;13.10;23.70
480;DHT22;226;48.606;9.096;2023-02-18T11:56:57;13.10;24.10
480;DHT22;226;48.606;9.096;2023-02-18T11:59:29;13.20;24.10
480;DHT22;226;48.606;9.096;2023-02-18T12:02:02;13.30;22.20
480;DHT22;226;48.606;9.096;2023-02-18T12:04:37;13.30;21.40
480;DHT22;226;48.606;9.096;2023-02-18T12:07:16;13.30;22.50
480;DHT22;226;48.606;9.096;2023-02-18T12:09:48;13.40;21.90
480;DHT22;226;48.606;9.096;2023-02-18T12:12:23;13.50;22.00
480;DHT22;226;48.606;9.096;2023-02-18T12:14:54;13.50;20.20
480;DHT22;226;48.606;9.096;2023-02-18T12:17:39;13.50;20.70
480;DHT22;226;48.606;9.096;2023-02-18T12:20:26;13.50;20.20
480;DHT22;226;48.606;9.096;2023-02-18T12:23:03;13.50;19.50
480;DHT22;226;48.606;9.096;2023-02-18T12:25:39;13.40;19.80
480;DHT22;226;48.606;9.096;2023-02-18T12:28:22;13.20;19.30
480;DHT22;226;48.606;9.096;2023-02-18T12:31:17;13.20;20.40
480;DHT22;226;48.606;9.096;2023-02-18T12:34:00;13.30;19.20
480;DHT22;226;48.606;9.096;2023-02-18T12:36:44;13.30;19.30
480;DHT22;226;48.606;9.096;2023-02-18T12:39:27;13.60;19.80
480;DHT22;226;48.606;9.096;2023-02-18T12:42:16;13.40;19.70
480;DHT22;226;48.606;9.096;2023-02-18T12:45:02;13.70;18.30
480;DHT22;226;48.606;9.096;2023-02-18T12:47:45;13.90;30.50
480;DHT22;226;48.606;9.096;2023-02-18T12:53:38;13.70;15.10
480;DHT22;226;48.606;9.096;2023-02-18T12:59:15;13.80;15.60
480;DHT22;226;48.606;9.096;2023-02-18T13:01:51;13.90;14.70
480;DHT22;226;48.606;9.096;2023-02-18T13:04:48;13.80;14.50
480;DHT22;226;48.606;9.096;2023-02-18T13:10:23;13.90;14.20
480;DHT22;226;48.606;9.096;2023-02-18T13:12:56;14.00;14.90
480;DHT22;226;48.606;9.096;2023-02-18T13:15:32;14.00;13.70
480;DHT22;226;48.606;9.096;2023-02-18T13:18:07;14.10;14.40
480;DHT22;226;48.606;9.096;2023-02-18T13:20:41;14.10;14.60
480;DHT22;226;48.606;9.096;2023-02-18T13:23:17;14.10;13.70
480;DHT22;226;48.606;9.096;2023-02-18T13:25:46;14.10;13.70
480;DHT22;226;48.606;9.096;2023-02-18T13:28:20;14.20;13.90
480;DHT22;226;48.606;9.096;2023-02-18T13:30:58;14.20;13.90
480;DHT22;226;48.606;9.096;2023-02-18T13:33:34;13.90;25.30
480;DHT22;226;48.606;9.096;2023-02-18T13:36:13;13.90;14.10
480;DHT22;226;48.606;9.096;2023-02-18T13:39:03;13.90;14.10
480;DHT22;226;48.606;9.096;2023-02-18T13:41:34;13.90;14.20
480;DHT22;226;48.606;9.096;2023-02-18T13:44:08;14.00;13.40
480;DHT22;226;48.606;9.096;2023-02-18T13:46:47;14.00;14.00
480;DHT22;226;48.606;9.096;2023-02-18T13:49:19;13.80;14.80
480;DHT22;226;48.606;9.096;2023-02-18T13:51:51;13.70;14.30
480;DHT22;226;48.606;9.096;2023-02-18T13:54:24;13.80;13.80
480;DHT22;226;48.606;9.096;2023-02-18T13:56:57;13.80;14.40
480;DHT22;226;48.606;9.096;2023-02-18T13:59:32;13.80;14.40
480;DHT22;226;48.606;9.096;2023-02-18T14:02:28;13.70;14.10
480;DHT22;226;48.606;9.096;2023-02-18T14:04:58;13.80;13.70
480;DHT22;226;48.606;9.096;2023-02-18T14:07:49;13.70;14.40
480;DHT22;226;48.606;9.096;2023-02-18T14:10:27;13.60;15.10
480;DHT22;226;48.606;9.096;2023-02-18T14:13:22;13.60;16.10
480;DHT22;226;48.606;9.096;2023-02-18T14:15:56;13.40;19.30
480;DHT22;226;48.606;9.096;2023-02-18T14:18:36;13.90;16.00
480;DHT22;226;48.606;9.096;2023-02-18T14:21:35;13.90;13.70
480;DHT22;226;48.606;9.096;2023-02-18T14:24:08;14.60;14.10
480;DHT22;226;48.606;9.096;2023-02-18T14:26:42;14.10;14.30
480;DHT22;226;48.606;9.096;2023-02-18T14:29:14;14.20;14.00
480;DHT22;226;48.606;9.096;2023-02-18T14:31:48;14.40;15.90
480;DHT22;226;48.606;9.096;2023-02-18T14:40:41;14.10;14.10
480;DHT22;226;48.606;9.096;2023-02-18T14:43:23;14.10;20.30
480;DHT22;226;48.606;9.096;2023-02-18T14:46:03;13.80;12.50
480;DHT22;226;48.606;9.096;2023-02-18T14:48:44;13.80;13.20
480;DHT22;226;48.606;9.096;2023-02-18T14:51:15;13.90;13.00
480;DHT22;226;48.606;9.096;2023-02-18T14:53:44;13.90;12.40
480;DHT22;226;48.606;9.096;2023-02-18T14:56:16;14.00;13.00
480;DHT22;226;48.606;9.096;2023-02-18T14:58:46;14.20;12.80
480;DHT22;226;48.606;9.096;2023-02-18T15:01:18;14.30;12.70
480;DHT22;226;48.606;9.096;2023-02-18T15:03:48;14.00;13.80
480;DHT22;226;48.606;9.096;2023-02-18T15:06:28;13.90;15.70
480;DHT22;226;48.606;9.096;2023-02-18T15:08:57;13.90;13.50
480;DHT22;226;48.606;9.096;2023-02-18T15:11:35;13.80;14.40
480;DHT22;226;48.606;9.096;2023-02-18T15:14:09;13.70;13.50
480;DHT22;226;48.606;9.096;2023-02-18T15:16:38;13.70;14.40
480;DHT22;226;48.606;9.096;2023-02-18T15:19:11;13.60;13.90
480;DHT22;226;48.606;9.096;2023-02-18T15:21:43;13.70;14.60
480;DHT22;226;48.606;9.096;2023-02-18T15:24:20;13.70;14.10
480;DHT22;226;48.606;9.096;2023-02-18T15:26:52;13.70;16.40
480;DHT22;226;48.606;9.096;2023-02-18T15:29:24;13.70;21.30
480;DHT22;226;48.606;9.096;2023-02-18T15:31:54;13.90;23.70
480;DHT22;226;48.606;9.096;2023-02-18T15:34:32;13.50;14.00
480;DHT22;226;48.606;9.096;2023-02-18T15:37:02;13.40;14.90
480;DHT22;226;48.606;9.096;2023-02-18T15:39:30;13.50;14.90
480;DHT22;226;48.606;9.096;2023-02-18T15:42:04;13.50;15.10
480;DHT22;226;48.606;9.096;2023-02-18T15:44:35;13.30;14.40
480;DHT22;226;48.606;9.096;2023-02-18T15:47:07;13.30;15.00
480;DHT22;226;48.606;9.096;2023-02-18T15:49:37;13.20;14.50
480;DHT22;226;48.606;9.096;2023-02-18T15:52:06;13.30;14.80
480;DHT22;226;48.606;9.096;2023-02-18T15:54:38;13.20;14.60
480;DHT22;226;48.606;9.096;2023-02-18T15:59:45;13.10;14.70
480;DHT22;226;48.606;9.096;2023-02-18T16:02:17;13.10;15.60
480;DHT22;226;48.606;9.096;2023-02-18T16:04:50;13.10;14.80
480;DHT22;226;48.606;9.096;2023-02-18T16:07:23;13.00;15.00
480;DHT22;226;48.606;9.096;2023-02-18T16:10:16;13.10;15.30
480;DHT22;226;48.606;9.096;2023-02-18T16:12:48;13.10;15.00
480;DHT22;226;48.606;9.096;2023-02-18T16:15:24;13.80;15.60
480;DHT22;226;48.606;9.096;2023-02-18T16:17:53;13.10;15.80
480;DHT22;226;48.606;9.096;2023-02-18T16:20:28;13.00;16.20
480;DHT22;226;48.606;9.096;2023-02-18T16:22:59;13.00;15.90
480;DHT22;226;48.606;9.096;2023-02-18T16:25:42;12.90;15.70
480;DHT22;226;48.606;9.096;2023-02-18T16:28:14;12.90;16.50
480;DHT22;226;48.606;9.096;2023-02-18T16:30:43;12.80;16.60
480;DHT22;226;48.606;9.096;2023-02-18T16:33:12;12.80;17.20
480;DHT22;226;48.606;9.096;2023-02-18T16:35:41;12.80;19.30
480;DHT22;226;48.606;9.096;2023-02-18T16:38:17;12.80;19.90
480;DHT22;226;48.606;9.096;2023-02-18T16:40:46;12.80;22.30
480;DHT22;226;48.606;9.096;2023-02-18T16:43:17;12.80;22.10
480;DHT22;226;48.606;9.096;2023-02-18T16:45:47;12.90;16.90
480;DHT22;226;48.606;9.096;2023-02-18T16:48:19;12.90;17.60
480;DHT22;226;48.606;9.096;2023-02-18T16:50:48;12.80;18.20
480;DHT22;226;48.606;9.096;2023-02-18T16:53:18;12.90;19.70
480;DHT22;226;48.606;9.096;2023-02-18T16:55:48;12.80;16.30
480;DHT22;226;48.606;9.096;2023-02-18T16:58:18;12.80;17.20
480;DHT22;226;48.606;9.096;2023-02-18T17:00:48;12.70;17.20
480;DHT22;226;48.606;9.096;2023-02-18T17:03:17;12.70;17.20
480;DHT22;226;48.606;9.096;2023-02-18T17:05:47;12.70;16.80
480;DHT22;226;48.606;9.096;2023-02-18T17:08:18;12.70;17.00
480;DHT22;226;48.606;9.096;2023-02-18T17:10:50;12.60;17.50
480;DHT22;226;48.606;9.096;2023-02-18T17:13:21;12.60;17.90
480;DHT22;226;48.606;9.096;2023-02-18T17:15:52;12.50;17.10
480;DHT22;226;48.606;9.096;2023-02-18T17:18:21;12.50;17.90
480;DHT22;226;48.606;9.096;2023-02-18T17:20:52;12.40;18.50
480;DHT22;226;48.606;9.096;2023-02-18T17:25:52;12.40;17.40
480;DHT22;226;48.606;9.096;2023-02-18T17:28:21;12.40;22.20
480;DHT22;226;48.606;9.096;2023-02-18T17:30:54;12.70;24.70
480;DHT22;226;48.606;9.096;2023-02-18T17:33:24;12.30;18.50
480;DHT22;226;48.606;9.096;2023-02-18T17:35:52;12.30;19.50
480;DHT22;226;48.606;9.096;2023-02-18T17:38:21;12.30;19.60
480;DHT22;226;48.606;9.096;2023-02-18T17:40:49;12.30;19.70
480;DHT22;226;48.606;9.096;2023-02-18T17:43:17;12.30;19.60
480;DHT22;226;48.606;9.096;2023-02-18T17:45:50;12.40;19.50
480;DHT22;226;48.606;9.096;2023-02-18T17:48:19;12.30;20.30
480;DHT22;226;48.606;9.096;2023-02-18T17:50:47;12.80;21.10
480;DHT22;226;48.606;9.096;2023-02-18T17:53:16;12.60;20.90